sensor_id;sensor_type;location;lat;lon;timestamp;temperature;humidity
67379;DHT22;54262;44.642;-0.974;2023-02-10T00:03:39;-0.90;92.50
67379;DHT22;54262;44.642;-0.974;2023-02-10T00:06:06;-1.10;92.70
67379;DHT22;54262;44.642;-0.974;2023-02-10T00:08:35;-1.10;92.50
67379;DHT22;54262;44.642;-0.974;2023-02-10T00:11:04;-1.10;92.80
67379;DHT22;54262;44.642;-0.974;2023-02-10T00:13:30;-1.10;92.60
67379;DHT22;54262;44.642;-0.974;2023-02-10T00:16:00;-1.00;93.30
67379;DHT22;54262;44.642;-0.974;2023-02-10T00:18:26;-1.20;92.80
67379;DHT22;54262;44.642;-0.974;2023-02-10T00:20:52;-1.30;93.10
67379;DHT22;54262;44.642;-0.974;2023-02-10T00:23:18;-1.30;93.10
67379;DHT22;54262;44.642;-0.974;2023-02-10T00:25:43;-1.10;93.00
67379;DHT22;54262;44.642;-0.974;2023-02-10T00:28:09;-1.30;92.90
67379;DHT22;54262;44.642;-0.974;2023-02-10T00:30:36;-1.40;92.90
67379;DHT22;54262;44.642;-0.974;2023-02-10T00:33:02;-1.40;93.20
67379;DHT22;54262;44.642;-0.974;2023-02-10T00:35:28;-1.50;93.10
67379;DHT22;54262;44.642;-0.974;2023-02-10T00:37:53;-1.20;93.50
67379;DHT22;54262;44.642;-0.974;2023-02-10T00:40:19;-1.20;92.50
67379;DHT22;54262;44.642;-0.974;2023-02-10T00:42:44;-1.40;92.70
67379;DHT22;54262;44.642;-0.974;2023-02-10T00:45:10;-1.40;93.00
67379;DHT22;54262;44.642;-0.974;2023-02-10T00:47:36;-1.40;93.10
67379;DHT22;54262;44.642;-0.974;2023-02-10T00:50:02;-1.40;93.10
67379;DHT22;54262;44.642;-0.974;2023-02-10T00:52:28;-1.40;93.20
67379;DHT22;54262;44.642;-0.974;2023-02-10T00:54:53;-1.40;93.00
67379;DHT22;54262;44.642;-0.974;2023-02-10T00:57:19;-1.40;93.00
67379;DHT22;54262;44.642;-0.974;2023-02-10T00:59:45;-1.40;92.60
67379;DHT22;54262;44.642;-0.974;2023-02-10T01:02:10;-1.40;92.40
67379;DHT22;54262;44.642;-0.974;2023-02-10T01:04:36;-1.40;93.00
67379;DHT22;54262;44.642;-0.974;2023-02-10T01:07:02;-1.40;92.30
67379;DHT22;54262;44.642;-0.974;2023-02-10T01:09:28;-1.70;92.40
67379;DHT22;54262;44.642;-0.974;2023-02-10T01:11:53;-1.70;93.10
67379;DHT22;54262;44.642;-0.974;2023-02-10T01:14:19;-1.70;92.90
67379;DHT22;54262;44.642;-0.974;2023-02-10T01:16:45;-1.60;92.90
67379;DHT22;54262;44.642;-0.974;2023-02-10T01:19:11;-1.80;92.90
67379;DHT22;54262;44.642;-0.974;2023-02-10T01:21:36;-1.80;92.90
67379;DHT22;54262;44.642;-0.974;2023-02-10T01:24:07;-1.80;92.90
67379;DHT22;54262;44.642;-0.974;2023-02-10T01:26:35;-1.70;93.20
67379;DHT22;54262;44.642;-0.974;2023-02-10T01:29:01;-1.60;92.50
67379;DHT22;54262;44.642;-0.974;2023-02-10T01:31:27;-1.70;92.70
67379;DHT22;54262;44.642;-0.974;2023-02-10T01:33:54;-1.80;92.80
67379;DHT22;54262;44.642;-0.974;2023-02-10T01:36:22;-1.80;93.00
67379;DHT22;54262;44.642;-0.974;2023-02-10T01:38:48;-1.80;92.80
67379;DHT22;54262;44.642;-0.974;2023-02-10T01:41:16;-1.80;92.90
67379;DHT22;54262;44.642;-0.974;2023-02-10T01:44:05;-1.60;93.10
67379;DHT22;54262;44.642;-0.974;2023-02-10T01:46:34;-1.50;92.70
67379;DHT22;54262;44.642;-0.974;2023-02-10T01:49:12;-1.60;92.20
67379;DHT22;54262;44.642;-0.974;2023-02-10T01:51:46;-1.90;92.50
67379;DHT22;54262;44.642;-0.974;2023-02-10T01:54:17;-1.90;93.00
67379;DHT22;54262;44.642;-0.974;2023-02-10T01:56:44;-1.80;93.00
67379;DHT22;54262;44.642;-0.974;2023-02-10T01:59:12;-1.80;92.60
67379;DHT22;54262;44.642;-0.974;2023-02-10T02:01:38;-1.80;92.30
67379;DHT22;54262;44.642;-0.974;2023-02-10T02:04:04;-1.80;92.80
67379;DHT22;54262;44.642;-0.974;2023-02-10T02:06:31;-1.80;92.60
67379;DHT22;54262;44.642;-0.974;2023-02-10T02:08:57;-1.80;92.80
67379;DHT22;54262;44.642;-0.974;2023-02-10T02:14:24;-2.00;92.60
67379;DHT22;54262;44.642;-0.974;2023-02-10T02:33:36;-2.00;92.70
67379;DHT22;54262;44.642;-0.974;2023-02-10T02:36:11;-2.10;92.70
67379;DHT22;54262;44.642;-0.974;2023-02-10T02:38:39;-2.10;93.00
67379;DHT22;54262;44.642;-0.974;2023-02-10T02:41:06;-2.10;92.70
67379;DHT22;54262;44.642;-0.974;2023-02-10T02:43:32;-2.20;92.70
67379;DHT22;54262;44.642;-0.974;2023-02-10T02:46:16;-2.00;92.80
67379;DHT22;54262;44.642;-0.974;2023-02-10T02:51:57;-2.10;92.50
67379;DHT22;54262;44.642;-0.974;2023-02-10T02:57:30;-2.00;92.90
67379;DHT22;54262;44.642;-0.974;2023-02-10T03:00:05;-2.10;92.30
67379;DHT22;54262;44.642;-0.974;2023-02-10T03:02:33;-2.20;92.60
67379;DHT22;54262;44.642;-0.974;2023-02-10T03:05:00;-2.30;92.40
67379;DHT22;54262;44.642;-0.974;2023-02-10T03:07:25;-2.20;92.70
67379;DHT22;54262;44.642;-0.974;2023-02-10T03:09:51;-2.20;92.60
67379;DHT22;54262;44.642;-0.974;2023-02-10T03:12:17;-2.20;92.30
67379;DHT22;54262;44.642;-0.974;2023-02-10T03:14:43;-2.20;92.40
67379;DHT22;54262;44.642;-0.974;2023-02-10T03:17:09;-2.30;92.40
67379;DHT22;54262;44.642;-0.974;2023-02-10T03:19:34;-2.30;92.70
67379;DHT22;54262;44.642;-0.974;2023-02-10T03:22:00;-1.80;92.80
67379;DHT22;54262;44.642;-0.974;2023-02-10T03:24:26;-1.80;91.90
67379;DHT22;54262;44.642;-0.974;2023-02-10T03:26:51;-2.10;91.90
67379;DHT22;54262;44.642;-0.974;2023-02-10T03:29:17;-2.20;92.10
67379;DHT22;54262;44.642;-0.974;2023-02-10T03:31:43;-2.20;92.30
67379;DHT22;54262;44.642;-0.974;2023-02-10T03:34:09;-2.20;92.20
67379;DHT22;54262;44.642;-0.974;2023-02-10T03:36:35;-2.20;92.30
67379;DHT22;54262;44.642;-0.974;2023-02-10T03:39:02;-2.20;92.40
67379;DHT22;54262;44.642;-0.974;2023-02-10T03:41:27;-2.30;91.80
67379;DHT22;54262;44.642;-0.974;2023-02-10T03:43:53;-2.30;92.20
67379;DHT22;54262;44.642;-0.974;2023-02-10T03:46:19;-2.30;92.10
67379;DHT22;54262;44.642;-0.974;2023-02-10T03:48:44;-2.30;91.80
67379;DHT22;54262;44.642;-0.974;2023-02-10T03:51:10;-2.40;92.00
67379;DHT22;54262;44.642;-0.974;2023-02-10T03:53:36;-2.40;92.10
67379;DHT22;54262;44.642;-0.974;2023-02-10T03:56:02;-2.40;92.30
67379;DHT22;54262;44.642;-0.974;2023-02-10T03:58:28;-2.50;92.30
67379;DHT22;54262;44.642;-0.974;2023-02-10T04:00:54;-2.50;92.90
67379;DHT22;54262;44.642;-0.974;2023-02-10T04:03:20;-2.30;92.50
67379;DHT22;54262;44.642;-0.974;2023-02-10T04:05:45;-2.20;92.40
67379;DHT22;54262;44.642;-0.974;2023-02-10T04:08:11;-2.30;91.80
67379;DHT22;54262;44.642;-0.974;2023-02-10T04:10:37;-2.40;91.80
67379;DHT22;54262;44.642;-0.974;2023-02-10T04:13:03;-2.40;92.60
67379;DHT22;54262;44.642;-0.974;2023-02-10T04:15:29;-2.20;92.60
67379;DHT22;54262;44.642;-0.974;2023-02-10T04:17:54;-2.30;91.80
67379;DHT22;54262;44.642;-0.974;2023-02-10T04:20:22;-2.50;91.90
67379;DHT22;54262;44.642;-0.974;2023-02-10T04:22:48;-2.60;92.20
67379;DHT22;54262;44.642;-0.974;2023-02-10T04:25:14;-2.70;92.30
67379;DHT22;54262;44.642;-0.974;2023-02-10T04:27:40;-2.60;92.30
67379;DHT22;54262;44.642;-0.974;2023-02-10T04:30:06;-2.50;92.20
67379;DHT22;54262;44.642;-0.974;2023-02-10T04:32:32;-2.50;92.10
67379;DHT22;54262;44.642;-0.974;2023-02-10T04:34:57;-2.60;91.90
67379;DHT22;54262;44.642;-0.974;2023-02-10T04:37:23;-2.60;92.00
67379;DHT22;54262;44.642;-0.974;2023-02-10T04:39:48;-2.60;92.00
67379;DHT22;54262;44.642;-0.974;2023-02-10T04:42:14;-2.50;91.90
67379;DHT22;54262;44.642;-0.974;2023-02-10T04:44:40;-2.60;92.20
67379;DHT22;54262;44.642;-0.974;2023-02-10T04:47:05;-2.60;92.30
67379;DHT22;54262;44.642;-0.974;2023-02-10T04:49:31;-2.70;92.00
67379;DHT22;54262;44.642;-0.974;2023-02-10T04:51:57;-2.70;92.20
67379;DHT22;54262;44.642;-0.974;2023-02-10T04:54:23;-2.70;92.30
67379;DHT22;54262;44.642;-0.974;2023-02-10T04:56:49;-2.70;92.20
67379;DHT22;54262;44.642;-0.974;2023-02-10T04:59:15;-2.80;91.90
67379;DHT22;54262;44.642;-0.974;2023-02-10T05:01:41;-2.80;92.30
67379;DHT22;54262;44.642;-0.974;2023-02-10T05:04:07;-2.80;92.30
67379;DHT22;54262;44.642;-0.974;2023-02-10T05:06:33;-2.80;92.20
67379;DHT22;54262;44.642;-0.974;2023-02-10T05:08:58;-2.80;92.20
67379;DHT22;54262;44.642;-0.974;2023-02-10T05:11:24;-2.80;92.20
67379;DHT22;54262;44.642;-0.974;2023-02-10T05:13:50;-2.90;92.40
67379;DHT22;54262;44.642;-0.974;2023-02-10T05:16:16;-2.90;92.40
67379;DHT22;54262;44.642;-0.974;2023-02-10T05:18:42;-3.00;92.50
67379;DHT22;54262;44.642;-0.974;2023-02-10T05:21:12;-3.10;92.60
67379;DHT22;54262;44.642;-0.974;2023-02-10T05:23:39;-3.00;92.70
67379;DHT22;54262;44.642;-0.974;2023-02-10T05:26:05;-2.90;92.30
67379;DHT22;54262;44.642;-0.974;2023-02-10T05:28:31;-2.90;92.00
67379;DHT22;54262;44.642;-0.974;2023-02-10T05:30:56;-2.90;92.10
67379;DHT22;54262;44.642;-0.974;2023-02-10T05:33:22;-2.90;92.20
67379;DHT22;54262;44.642;-0.974;2023-02-10T05:35:48;-2.90;92.00
67379;DHT22;54262;44.642;-0.974;2023-02-10T05:38:13;-3.00;92.20
67379;DHT22;54262;44.642;-0.974;2023-02-10T05:40:39;-2.90;92.00
67379;DHT22;54262;44.642;-0.974;2023-02-10T05:43:05;-3.00;92.00
67379;DHT22;54262;44.642;-0.974;2023-02-10T05:45:30;-3.00;92.00
67379;DHT22;54262;44.642;-0.974;2023-02-10T05:47:56;-3.00;92.00
67379;DHT22;54262;44.642;-0.974;2023-02-10T05:50:22;-3.10;92.50
67379;DHT22;54262;44.642;-0.974;2023-02-10T05:52:47;-3.10;92.30
67379;DHT22;54262;44.642;-0.974;2023-02-10T05:55:13;-3.10;92.00
67379;DHT22;54262;44.642;-0.974;2023-02-10T05:57:39;-3.10;91.80
67379;DHT22;54262;44.642;-0.974;2023-02-10T06:00:06;-3.20;92.00
67379;DHT22;54262;44.642;-0.974;2023-02-10T06:02:32;-3.30;92.20
67379;DHT22;54262;44.642;-0.974;2023-02-10T06:04:58;-3.30;92.50
67379;DHT22;54262;44.642;-0.974;2023-02-10T06:07:24;-3.30;92.30
67379;DHT22;54262;44.642;-0.974;2023-02-10T06:09:49;-3.30;92.30
67379;DHT22;54262;44.642;-0.974;2023-02-10T06:12:15;-3.30;92.30
67379;DHT22;54262;44.642;-0.974;2023-02-10T06:14:41;-3.30;92.00
67379;DHT22;54262;44.642;-0.974;2023-02-10T06:17:07;-3.30;92.40
67379;DHT22;54262;44.642;-0.974;2023-02-10T06:19:37;-3.40;92.30
67379;DHT22;54262;44.642;-0.974;2023-02-10T06:22:03;-3.30;92.50
67379;DHT22;54262;44.642;-0.974;2023-02-10T06:24:29;-3.00;92.40
67379;DHT22;54262;44.642;-0.974;2023-02-10T06:26:55;-2.80;92.00
67379;DHT22;54262;44.642;-0.974;2023-02-10T06:29:20;-2.90;91.60
67379;DHT22;54262;44.642;-0.974;2023-02-10T06:31:46;-2.70;91.60
67379;DHT22;54262;44.642;-0.974;2023-02-10T06:34:12;-3.10;90.90
67379;DHT22;54262;44.642;-0.974;2023-02-10T06:36:38;-3.30;91.50
67379;DHT22;54262;44.642;-0.974;2023-02-10T06:39:03;-3.30;91.70
67379;DHT22;54262;44.642;-0.974;2023-02-10T06:41:29;-3.30;92.00
67379;DHT22;54262;44.642;-0.974;2023-02-10T06:43:55;-3.40;91.70
67379;DHT22;54262;44.642;-0.974;2023-02-10T06:46:21;-3.50;92.00
67379;DHT22;54262;44.642;-0.974;2023-02-10T06:48:46;-3.50;92.30
67379;DHT22;54262;44.642;-0.974;2023-02-10T06:51:12;-3.60;92.40
67379;DHT22;54262;44.642;-0.974;2023-02-10T06:53:41;-3.60;92.30
67379;DHT22;54262;44.642;-0.974;2023-02-10T06:56:08;-3.50;92.10
67379;DHT22;54262;44.642;-0.974;2023-02-10T06:58:34;-3.50;91.90
67379;DHT22;54262;44.642;-0.974;2023-02-10T07:01:00;-3.50;92.00
67379;DHT22;54262;44.642;-0.974;2023-02-10T07:03:27;-3.50;91.90
67379;DHT22;54262;44.642;-0.974;2023-02-10T07:05:53;-3.60;92.20
67379;DHT22;54262;44.642;-0.974;2023-02-10T07:08:18;-3.50;92.00
67379;DHT22;54262;44.642;-0.974;2023-02-10T07:10:44;-3.50;92.00
67379;DHT22;54262;44.642;-0.974;2023-02-10T07:13:10;-3.40;92.00
67379;DHT22;54262;44.642;-0.974;2023-02-10T07:15:35;-3.50;91.70
67379;DHT22;54262;44.642;-0.974;2023-02-10T07:18:01;-3.30;92.20
67379;DHT22;54262;44.642;-0.974;2023-02-10T07:20:27;-3.20;91.40
67379;DHT22;54262;44.642;-0.974;2023-02-10T07:22:52;-3.50;91.70
67379;DHT22;54262;44.642;-0.974;2023-02-10T07:25:18;-3.50;92.10
67379;DHT22;54262;44.642;-0.974;2023-02-10T07:27:44;-3.40;91.90
67379;DHT22;54262;44.642;-0.974;2023-02-10T07:30:11;-3.40;91.80
67379;DHT22;54262;44.642;-0.974;2023-02-10T07:32:37;-3.40;91.70
67379;DHT22;54262;44.642;-0.974;2023-02-10T07:35:03;-3.40;92.00
67379;DHT22;54262;44.642;-0.974;2023-02-10T07:37:28;-3.40;91.30
67379;DHT22;54262;44.642;-0.974;2023-02-10T07:39:57;-3.20;91.20
67379;DHT22;54262;44.642;-0.974;2023-02-10T07:42:23;-3.30;91.50
67379;DHT22;54262;44.642;-0.974;2023-02-10T07:44:48;-3.30;91.50
67379;DHT22;54262;44.642;-0.974;2023-02-10T07:47:14;-3.30;91.70
67379;DHT22;54262;44.642;-0.974;2023-02-10T07:49:40;-3.10;91.60
67379;DHT22;54262;44.642;-0.974;2023-02-10T07:52:05;-3.00;90.80
67379;DHT22;54262;44.642;-0.974;2023-02-10T07:54:34;-3.00;91.10
67379;DHT22;54262;44.642;-0.974;2023-02-10T07:57:00;-3.00;91.30
67379;DHT22;54262;44.642;-0.974;2023-02-10T07:59:25;-3.00;91.50
67379;DHT22;54262;44.642;-0.974;2023-02-10T08:01:51;-2.90;91.60
67379;DHT22;54262;44.642;-0.974;2023-02-10T08:04:17;-2.80;91.50
67379;DHT22;54262;44.642;-0.974;2023-02-10T08:06:42;-2.70;91.20
67379;DHT22;54262;44.642;-0.974;2023-02-10T08:09:09;-2.60;91.10
67379;DHT22;54262;44.642;-0.974;2023-02-10T08:11:34;-2.50;91.10
67379;DHT22;54262;44.642;-0.974;2023-02-10T08:14:01;-2.50;91.30
67379;DHT22;54262;44.642;-0.974;2023-02-10T08:16:28;-2.40;91.20
67379;DHT22;54262;44.642;-0.974;2023-02-10T08:18:53;-2.30;91.10
67379;DHT22;54262;44.642;-0.974;2023-02-10T08:21:19;-2.10;91.00
67379;DHT22;54262;44.642;-0.974;2023-02-10T08:23:45;-2.00;91.10
67379;DHT22;54262;44.642;-0.974;2023-02-10T08:26:12;-2.00;90.90
67379;DHT22;54262;44.642;-0.974;2023-02-10T08:28:39;-2.00;90.70
67379;DHT22;54262;44.642;-0.974;2023-02-10T08:31:07;-1.80;90.90
67379;DHT22;54262;44.642;-0.974;2023-02-10T08:33:37;-1.70;90.90
67379;DHT22;54262;44.642;-0.974;2023-02-10T08:36:08;-1.50;90.60
67379;DHT22;54262;44.642;-0.974;2023-02-10T08:38:34;-1.50;90.40
67379;DHT22;54262;44.642;-0.974;2023-02-10T08:41:00;-1.30;90.70
67379;DHT22;54262;44.642;-0.974;2023-02-10T08:43:27;-1.20;90.50
67379;DHT22;54262;44.642;-0.974;2023-02-10T08:45:55;-1.10;90.40
67379;DHT22;54262;44.642;-0.974;2023-02-10T08:48:21;-0.90;90.70
67379;DHT22;54262;44.642;-0.974;2023-02-10T08:50:47;-0.70;90.70
67379;DHT22;54262;44.642;-0.974;2023-02-10T08:53:13;-0.60;90.60
67379;DHT22;54262;44.642;-0.974;2023-02-10T08:55:38;-0.50;90.70
67379;DHT22;54262;44.642;-0.974;2023-02-10T08:58:04;-0.40;90.90
67379;DHT22;54262;44.642;-0.974;2023-02-10T09:00:30;-0.30;90.60
67379;DHT22;54262;44.642;-0.974;2023-02-10T09:02:55;-0.20;91.10
67379;DHT22;54262;44.642;-0.974;2023-02-10T09:05:21;-0.10;91.40
67379;DHT22;54262;44.642;-0.974;2023-02-10T09:07:47;0.00;91.70
67379;DHT22;54262;44.642;-0.974;2023-02-10T09:10:13;0.00;91.80
67379;DHT22;54262;44.642;-0.974;2023-02-10T09:12:40;0.10;91.70
67379;DHT22;54262;44.642;-0.974;2023-02-10T09:15:09;0.20;91.30
67379;DHT22;54262;44.642;-0.974;2023-02-10T09:17:35;0.40;91.10
67379;DHT22;54262;44.642;-0.974;2023-02-10T09:20:01;0.50;91.10
67379;DHT22;54262;44.642;-0.974;2023-02-10T09:22:27;0.60;91.00
67379;DHT22;54262;44.642;-0.974;2023-02-10T09:24:52;0.70;90.90
67379;DHT22;54262;44.642;-0.974;2023-02-10T09:27:20;0.80;90.60
67379;DHT22;54262;44.642;-0.974;2023-02-10T09:29:46;1.00;90.60
67379;DHT22;54262;44.642;-0.974;2023-02-10T09:32:12;1.10;90.40
67379;DHT22;54262;44.642;-0.974;2023-02-10T09:34:38;1.30;90.30
67379;DHT22;54262;44.642;-0.974;2023-02-10T09:37:05;1.40;90.00
67379;DHT22;54262;44.642;-0.974;2023-02-10T09:39:31;1.50;90.00
67379;DHT22;54262;44.642;-0.974;2023-02-10T09:42:29;1.50;89.30
67379;DHT22;54262;44.642;-0.974;2023-02-10T09:45:15;1.80;88.30
67379;DHT22;54262;44.642;-0.974;2023-02-10T09:47:50;1.90;87.90
67379;DHT22;54262;44.642;-0.974;2023-02-10T09:50:21;2.10;88.20
67379;DHT22;54262;44.642;-0.974;2023-02-10T09:55:39;2.30;88.20
67379;DHT22;54262;44.642;-0.974;2023-02-10T09:58:26;2.60;85.70
67379;DHT22;54262;44.642;-0.974;2023-02-10T10:00:59;2.80;86.60
67379;DHT22;54262;44.642;-0.974;2023-02-10T10:03:41;2.70;87.30
67379;DHT22;54262;44.642;-0.974;2023-02-10T10:06:17;2.70;86.80
67379;DHT22;54262;44.642;-0.974;2023-02-10T10:11:23;3.20;86.30
67379;DHT22;54262;44.642;-0.974;2023-02-10T10:13:50;3.60;85.30
67379;DHT22;54262;44.642;-0.974;2023-02-10T10:16:51;3.80;84.00
67379;DHT22;54262;44.642;-0.974;2023-02-10T10:30:25;4.80;79.00
67379;DHT22;54262;44.642;-0.974;2023-02-10T10:33:02;5.30;77.50
67379;DHT22;54262;44.642;-0.974;2023-02-10T10:35:42;5.30;76.20
67379;DHT22;54262;44.642;-0.974;2023-02-10T10:38:14;5.30;78.40
67379;DHT22;54262;44.642;-0.974;2023-02-10T10:40:43;5.50;78.10
67379;DHT22;54262;44.642;-0.974;2023-02-10T10:43:23;5.90;76.60
67379;DHT22;54262;44.642;-0.974;2023-02-10T10:45:55;6.00;75.10
67379;DHT22;54262;44.642;-0.974;2023-02-10T10:48:25;5.90;73.10
67379;DHT22;54262;44.642;-0.974;2023-02-10T10:51:03;6.10;73.30
67379;DHT22;54262;44.642;-0.974;2023-02-10T10:56:06;6.40;73.60
67379;DHT22;54262;44.642;-0.974;2023-02-10T10:58:40;6.30;72.80
67379;DHT22;54262;44.642;-0.974;2023-02-10T11:01:08;6.70;71.40
67379;DHT22;54262;44.642;-0.974;2023-02-10T11:03:34;6.80;69.60
67379;DHT22;54262;44.642;-0.974;2023-02-10T11:08:54;7.30;68.00
67379;DHT22;54262;44.642;-0.974;2023-02-10T11:11:38;7.30;67.90
67379;DHT22;54262;44.642;-0.974;2023-02-10T11:14:20;7.70;67.30
67379;DHT22;54262;44.642;-0.974;2023-02-10T11:17:05;7.60;62.80
67379;DHT22;54262;44.642;-0.974;2023-02-10T11:19:33;7.80;66.50
67379;DHT22;54262;44.642;-0.974;2023-02-10T11:22:00;7.90;67.10
67379;DHT22;54262;44.642;-0.974;2023-02-10T11:24:31;8.00;62.40
67379;DHT22;54262;44.642;-0.974;2023-02-10T11:27:03;8.00;62.90
67379;DHT22;54262;44.642;-0.974;2023-02-10T11:29:34;8.20;62.00
67379;DHT22;54262;44.642;-0.974;2023-02-10T11:32:01;8.60;59.90
67379;DHT22;54262;44.642;-0.974;2023-02-10T11:34:30;8.80;59.90
67379;DHT22;54262;44.642;-0.974;2023-02-10T11:36:58;8.50;61.00
67379;DHT22;54262;44.642;-0.974;2023-02-10T11:39:31;8.30;60.80
67379;DHT22;54262;44.642;-0.974;2023-02-10T11:44:42;8.40;60.80
67379;DHT22;54262;44.642;-0.974;2023-02-10T11:47:17;8.70;65.40
67379;DHT22;54262;44.642;-0.974;2023-02-10T11:49:45;8.90;61.90
67379;DHT22;54262;44.642;-0.974;2023-02-10T11:52:12;9.00;60.20
67379;DHT22;54262;44.642;-0.974;2023-02-10T11:54:39;9.20;61.10
67379;DHT22;54262;44.642;-0.974;2023-02-10T12:00:38;9.50;57.60
67379;DHT22;54262;44.642;-0.974;2023-02-10T12:03:31;9.30;57.90
67379;DHT22;54262;44.642;-0.974;2023-02-10T12:19:46;9.80;54.00
67379;DHT22;54262;44.642;-0.974;2023-02-10T12:30:04;10.40;51.50
67379;DHT22;54262;44.642;-0.974;2023-02-10T12:36:22;10.50;50.10
67379;DHT22;54262;44.642;-0.974;2023-02-10T12:38:30;10.30;49.50
67379;DHT22;54262;44.642;-0.974;2023-02-10T12:41:15;10.40;50.30
67379;DHT22;54262;44.642;-0.974;2023-02-10T12:46:32;10.60;48.40
67379;DHT22;54262;44.642;-0.974;2023-02-10T12:52:02;10.70;47.20
67379;DHT22;54262;44.642;-0.974;2023-02-10T12:57:06;10.80;45.90
67379;DHT22;54262;44.642;-0.974;2023-02-10T12:59:52;10.80;46.60
67379;DHT22;54262;44.642;-0.974;2023-02-10T13:05:04;10.90;47.00
67379;DHT22;54262;44.642;-0.974;2023-02-10T13:12:39;11.00;43.90
67379;DHT22;54262;44.642;-0.974;2023-02-10T13:15:23;11.10;44.60
67379;DHT22;54262;44.642;-0.974;2023-02-10T13:17:51;11.10;45.20
67379;DHT22;54262;44.642;-0.974;2023-02-10T13:29:34;11.30;49.00
67379;DHT22;54262;44.642;-0.974;2023-02-10T13:32:33;11.60;45.30
67379;DHT22;54262;44.642;-0.974;2023-02-10T13:35:06;11.60;44.20
67379;DHT22;54262;44.642;-0.974;2023-02-10T13:37:47;11.50;43.60
67379;DHT22;54262;44.642;-0.974;2023-02-10T13:40:28;11.60;46.60
67379;DHT22;54262;44.642;-0.974;2023-02-10T13:42:57;11.40;44.80
67379;DHT22;54262;44.642;-0.974;2023-02-10T13:45:35;11.40;44.20
67379;DHT22;54262;44.642;-0.974;2023-02-10T13:48:14;11.40;44.30
67379;DHT22;54262;44.642;-0.974;2023-02-10T13:50:51;11.60;48.70
67379;DHT22;54262;44.642;-0.974;2023-02-10T13:58:59;11.70;43.50
67379;DHT22;54262;44.642;-0.974;2023-02-10T14:01:48;11.80;44.10
67379;DHT22;54262;44.642;-0.974;2023-02-10T14:06:52;11.70;44.80
67379;DHT22;54262;44.642;-0.974;2023-02-10T14:12:05;11.90;43.60
67379;DHT22;54262;44.642;-0.974;2023-02-10T14:14:35;11.80;42.30
67379;DHT22;54262;44.642;-0.974;2023-02-10T14:17:25;11.70;42.80
67379;DHT22;54262;44.642;-0.974;2023-02-10T14:19:56;11.80;42.20
67379;DHT22;54262;44.642;-0.974;2023-02-10T14:24:55;11.80;45.90
67379;DHT22;54262;44.642;-0.974;2023-02-10T14:27:27;11.60;41.50
67379;DHT22;54262;44.642;-0.974;2023-02-10T14:29:58;11.60;41.20
67379;DHT22;54262;44.642;-0.974;2023-02-10T14:32:24;11.60;41.80
67379;DHT22;54262;44.642;-0.974;2023-02-10T14:35:01;11.70;41.40
67379;DHT22;54262;44.642;-0.974;2023-02-10T14:37:27;11.80;42.30
67379;DHT22;54262;44.642;-0.974;2023-02-10T14:39:58;11.70;41.90
67379;DHT22;54262;44.642;-0.974;2023-02-10T14:42:29;11.60;42.30
67379;DHT22;54262;44.642;-0.974;2023-02-10T14:44:58;11.60;42.70
67379;DHT22;54262;44.642;-0.974;2023-02-10T14:47:38;11.70;42.70
67379;DHT22;54262;44.642;-0.974;2023-02-10T14:50:20;11.70;42.70
67379;DHT22;54262;44.642;-0.974;2023-02-10T14:52:47;11.70;42.30
67379;DHT22;54262;44.642;-0.974;2023-02-10T14:55:34;11.70;46.40
67379;DHT22;54262;44.642;-0.974;2023-02-10T14:58:13;11.70;42.10
67379;DHT22;54262;44.642;-0.974;2023-02-10T15:00:41;11.70;40.20
67379;DHT22;54262;44.642;-0.974;2023-02-10T15:03:17;11.70;39.30
67379;DHT22;54262;44.642;-0.974;2023-02-10T15:05:49;11.70;42.40
67379;DHT22;54262;44.642;-0.974;2023-02-10T15:08:21;11.60;42.00
67379;DHT22;54262;44.642;-0.974;2023-02-10T15:10:52;11.60;42.10
67379;DHT22;54262;44.642;-0.974;2023-02-10T15:13:33;11.80;41.60
67379;DHT22;54262;44.642;-0.974;2023-02-10T15:18:36;11.80;41.90
67379;DHT22;54262;44.642;-0.974;2023-02-10T15:21:06;11.70;42.10
67379;DHT22;54262;44.642;-0.974;2023-02-10T15:23:33;11.70;41.90
67379;DHT22;54262;44.642;-0.974;2023-02-10T15:26:17;11.70;41.90
67379;DHT22;54262;44.642;-0.974;2023-02-10T15:28:43;11.60;41.40
67379;DHT22;54262;44.642;-0.974;2023-02-10T15:31:25;11.60;42.60
67379;DHT22;54262;44.642;-0.974;2023-02-10T15:33:54;11.60;46.00
67379;DHT22;54262;44.642;-0.974;2023-02-10T15:38:57;11.60;39.20
67379;DHT22;54262;44.642;-0.974;2023-02-10T15:41:58;11.70;40.20
67379;DHT22;54262;44.642;-0.974;2023-02-10T15:47:18;11.60;40.80
67379;DHT22;54262;44.642;-0.974;2023-02-10T15:49:47;11.30;41.60
67379;DHT22;54262;44.642;-0.974;2023-02-10T15:52:18;11.40;42.60
67379;DHT22;54262;44.642;-0.974;2023-02-10T15:54:44;11.30;39.30
67379;DHT22;54262;44.642;-0.974;2023-02-10T15:57:11;11.30;38.00
67379;DHT22;54262;44.642;-0.974;2023-02-10T15:59:38;11.40;38.20
67379;DHT22;54262;44.642;-0.974;2023-02-10T16:02:05;11.40;40.80
67379;DHT22;54262;44.642;-0.974;2023-02-10T16:04:31;11.30;41.20
67379;DHT22;54262;44.642;-0.974;2023-02-10T16:06:58;11.30;41.20
67379;DHT22;54262;44.642;-0.974;2023-02-10T16:09:24;11.20;41.60
67379;DHT22;54262;44.642;-0.974;2023-02-10T16:11:50;11.30;41.30
67379;DHT22;54262;44.642;-0.974;2023-02-10T16:14:16;11.20;41.40
67379;DHT22;54262;44.642;-0.974;2023-02-10T16:16:47;11.20;41.20
67379;DHT22;54262;44.642;-0.974;2023-02-10T16:19:15;11.20;43.30
67379;DHT22;54262;44.642;-0.974;2023-02-10T16:21:41;10.90;44.50
67379;DHT22;54262;44.642;-0.974;2023-02-10T16:24:16;10.90;45.00
67379;DHT22;54262;44.642;-0.974;2023-02-10T16:26:43;10.80;45.40
67379;DHT22;54262;44.642;-0.974;2023-02-10T16:29:22;10.70;46.10
67379;DHT22;54262;44.642;-0.974;2023-02-10T16:31:48;10.80;46.30
67379;DHT22;54262;44.642;-0.974;2023-02-10T16:34:14;10.80;46.20
67379;DHT22;54262;44.642;-0.974;2023-02-10T16:36:40;10.70;45.70
67379;DHT22;54262;44.642;-0.974;2023-02-10T16:39:17;10.50;47.50
67379;DHT22;54262;44.642;-0.974;2023-02-10T16:41:44;10.60;47.90
67379;DHT22;54262;44.642;-0.974;2023-02-10T16:44:10;10.50;49.80
67379;DHT22;54262;44.642;-0.974;2023-02-10T16:46:35;10.50;48.50
67379;DHT22;54262;44.642;-0.974;2023-02-10T16:49:03;10.50;48.50
67379;DHT22;54262;44.642;-0.974;2023-02-10T16:51:28;10.40;48.90
67379;DHT22;54262;44.642;-0.974;2023-02-10T16:53:54;10.30;49.10
67379;DHT22;54262;44.642;-0.974;2023-02-10T16:56:20;10.20;49.90
67379;DHT22;54262;44.642;-0.974;2023-02-10T16:58:46;10.10;50.10
67379;DHT22;54262;44.642;-0.974;2023-02-10T17:01:12;10.00;50.70
67379;DHT22;54262;44.642;-0.974;2023-02-10T17:03:38;9.90;51.10
67379;DHT22;54262;44.642;-0.974;2023-02-10T17:06:04;9.70;52.10
67379;DHT22;54262;44.642;-0.974;2023-02-10T17:08:30;9.60;52.50
67379;DHT22;54262;44.642;-0.974;2023-02-10T17:10:55;9.50;53.00
67379;DHT22;54262;44.642;-0.974;2023-02-10T17:13:21;9.30;53.70
67379;DHT22;54262;44.642;-0.974;2023-02-10T17:15:47;9.20;54.40
67379;DHT22;54262;44.642;-0.974;2023-02-10T17:18:14;9.00;54.80
67379;DHT22;54262;44.642;-0.974;2023-02-10T17:20:40;8.90;55.00
67379;DHT22;54262;44.642;-0.974;2023-02-10T17:23:06;8.80;55.60
67379;DHT22;54262;44.642;-0.974;2023-02-10T17:25:33;8.70;56.20
67379;DHT22;54262;44.642;-0.974;2023-02-10T17:28:01;8.60;56.30
67379;DHT22;54262;44.642;-0.974;2023-02-10T17:30:30;8.60;56.20
67379;DHT22;54262;44.642;-0.974;2023-02-10T17:32:55;8.50;56.40
67379;DHT22;54262;44.642;-0.974;2023-02-10T17:35:22;8.40;57.00
67379;DHT22;54262;44.642;-0.974;2023-02-10T17:37:49;8.30;57.10